Terminal Aerodrome Forecast
Issued by NWS

Home | Current Version | Previous Version | Graphics & Text | Print | Product List | Glossary On
Versions: 1 2 3 4 5 6 7 8 9 10 11 12 13 14 15 16
474
FTUS43 KBIS 102337
TAFMOT
TAF
KMOT 102337Z 1100/1124 03004KT 5SM -SN OVC014
     FM110500 VRB03KT P6SM OVC010
     FM110900 VRB03KT P6SM OVC008
     FM111800 03004KT P6SM -SN OVC010
     FM112100 34009KT P6SM OVC015=

USA.gov is the U.S. government's official web portal to all federal, state and local government web resources and services.